sensor_id;sensor_type;location;lat;lon;timestamp;temperature;humidity
42907;DHT22;28552;51.146;6.576;2023-10-09T00:00:47;15.40;99.90
42907;DHT22;28552;51.146;6.576;2023-10-09T00:03:51;15.50;99.90
42907;DHT22;28552;51.146;6.576;2023-10-09T00:06:53;15.50;99.90
42907;DHT22;28552;51.146;6.576;2023-10-09T00:09:59;15.50;99.90
42907;DHT22;28552;51.146;6.576;2023-10-09T00:13:00;15.60;99.90
42907;DHT22;28552;51.146;6.576;2023-10-09T00:16:05;15.60;99.90
42907;DHT22;28552;51.146;6.576;2023-10-09T00:19:14;15.50;99.90
42907;DHT22;28552;51.146;6.576;2023-10-09T00:22:19;15.50;99.90
42907;DHT22;28552;51.146;6.576;2023-10-09T00:25:26;15.50;99.90
42907;DHT22;28552;51.146;6.576;2023-10-09T00:28:36;15.40;99.90
42907;DHT22;28552;51.146;6.576;2023-10-09T00:31:38;15.40;99.90
42907;DHT22;28552;51.146;6.576;2023-10-09T00:34:39;15.30;99.90
42907;DHT22;28552;51.146;6.576;2023-10-09T00:37:40;15.30;99.90
42907;DHT22;28552;51.146;6.576;2023-10-09T00:40:41;15.30;99.90
42907;DHT22;28552;51.146;6.576;2023-10-09T00:43:56;15.20;99.90
42907;DHT22;28552;51.146;6.576;2023-10-09T00:46:59;15.20;99.90
42907;DHT22;28552;51.146;6.576;2023-10-09T00:50:11;15.20;99.90
42907;DHT22;28552;51.146;6.576;2023-10-09T00:53:22;15.10;99.90
42907;DHT22;28552;51.146;6.576;2023-10-09T00:56:31;15.20;99.90
42907;DHT22;28552;51.146;6.576;2023-10-09T00:59:40;15.20;99.90
42907;DHT22;28552;51.146;6.576;2023-10-09T01:02:43;15.20;99.90
42907;DHT22;28552;51.146;6.576;2023-10-09T01:05:46;15.20;99.90
42907;DHT22;28552;51.146;6.576;2023-10-09T01:09:02;15.30;99.90
42907;DHT22;28552;51.146;6.576;2023-10-09T01:12:10;15.30;99.90
42907;DHT22;28552;51.146;6.576;2023-10-09T01:15:18;15.30;99.90
42907;DHT22;28552;51.146;6.576;2023-10-09T01:18:36;15.30;99.90
42907;DHT22;28552;51.146;6.576;2023-10-09T01:21:39;15.30;99.90
42907;DHT22;28552;51.146;6.576;2023-10-09T01:24:40;15.40;99.90
42907;DHT22;28552;51.146;6.576;2023-10-09T01:27:41;15.40;99.90
42907;DHT22;28552;51.146;6.576;2023-10-09T01:30:44;15.40;99.90
42907;DHT22;28552;51.146;6.576;2023-10-09T01:33:46;15.50;99.90
42907;DHT22;28552;51.146;6.576;2023-10-09T01:36:47;15.50;99.90
42907;DHT22;28552;51.146;6.576;2023-10-09T01:39:50;15.60;99.90
42907;DHT22;28552;51.146;6.576;2023-10-09T01:42:51;15.60;99.90
42907;DHT22;28552;51.146;6.576;2023-10-09T01:45:52;15.70;99.90
42907;DHT22;28552;51.146;6.576;2023-10-09T01:48:53;15.70;99.90
42907;DHT22;28552;51.146;6.576;2023-10-09T01:51:54;15.80;99.90
42907;DHT22;28552;51.146;6.576;2023-10-09T01:54:54;15.80;99.90
42907;DHT22;28552;51.146;6.576;2023-10-09T01:58:04;15.80;99.90
42907;DHT22;28552;51.146;6.576;2023-10-09T02:01:24;15.90;99.90
42907;DHT22;28552;51.146;6.576;2023-10-09T02:04:25;15.90;99.90
42907;DHT22;28552;51.146;6.576;2023-10-09T02:07:25;15.90;99.90
42907;DHT22;28552;51.146;6.576;2023-10-09T02:10:34;15.90;99.90
42907;DHT22;28552;51.146;6.576;2023-10-09T02:13:37;15.90;99.90
42907;DHT22;28552;51.146;6.576;2023-10-09T02:16:42;16.00;99.90
42907;DHT22;28552;51.146;6.576;2023-10-09T02:19:44;16.00;99.90
42907;DHT22;28552;51.146;6.576;2023-10-09T02:22:48;16.10;99.90
42907;DHT22;28552;51.146;6.576;2023-10-09T02:25:49;16.10;99.90
42907;DHT22;28552;51.146;6.576;2023-10-09T02:28:55;16.10;99.90
42907;DHT22;28552;51.146;6.576;2023-10-09T02:31:59;16.10;99.90
42907;DHT22;28552;51.146;6.576;2023-10-09T02:35:13;16.10;99.90
42907;DHT22;28552;51.146;6.576;2023-10-09T02:38:28;16.00;99.90
42907;DHT22;28552;51.146;6.576;2023-10-09T02:41:32;16.00;99.90
42907;DHT22;28552;51.146;6.576;2023-10-09T02:44:34;16.00;99.90
42907;DHT22;28552;51.146;6.576;2023-10-09T02:47:40;16.00;99.90
42907;DHT22;28552;51.146;6.576;2023-10-09T02:50:41;16.00;99.90
42907;DHT22;28552;51.146;6.576;2023-10-09T02:53:45;16.00;99.90
42907;DHT22;28552;51.146;6.576;2023-10-09T02:56:51;16.00;99.90
42907;DHT22;28552;51.146;6.576;2023-10-09T03:00:06;16.00;99.90
42907;DHT22;28552;51.146;6.576;2023-10-09T03:03:18;16.00;99.90
42907;DHT22;28552;51.146;6.576;2023-10-09T03:06:19;16.00;99.90
42907;DHT22;28552;51.146;6.576;2023-10-09T03:09:26;16.00;99.90
42907;DHT22;28552;51.146;6.576;2023-10-09T03:12:27;16.00;99.90
42907;DHT22;28552;51.146;6.576;2023-10-09T03:15:28;16.00;99.90
42907;DHT22;28552;51.146;6.576;2023-10-09T03:18:31;16.00;99.90
42907;DHT22;28552;51.146;6.576;2023-10-09T03:21:32;16.00;99.90
42907;DHT22;28552;51.146;6.576;2023-10-09T03:24:33;16.10;99.90
42907;DHT22;28552;51.146;6.576;2023-10-09T03:27:34;16.10;99.90
42907;DHT22;28552;51.146;6.576;2023-10-09T03:30:34;16.10;99.90
42907;DHT22;28552;51.146;6.576;2023-10-09T03:33:35;16.10;99.90
42907;DHT22;28552;51.146;6.576;2023-10-09T03:36:36;16.10;99.90
42907;DHT22;28552;51.146;6.576;2023-10-09T03:39:39;16.00;99.90
42907;DHT22;28552;51.146;6.576;2023-10-09T03:42:41;16.10;99.90
42907;DHT22;28552;51.146;6.576;2023-10-09T03:45:42;16.10;99.90
42907;DHT22;28552;51.146;6.576;2023-10-09T03:48:53;16.10;99.90
42907;DHT22;28552;51.146;6.576;2023-10-09T03:51:57;16.10;99.90
42907;DHT22;28552;51.146;6.576;2023-10-09T03:54:59;16.10;99.90
42907;DHT22;28552;51.146;6.576;2023-10-09T03:58:10;16.10;99.90
42907;DHT22;28552;51.146;6.576;2023-10-09T04:01:14;16.10;99.90
42907;DHT22;28552;51.146;6.576;2023-10-09T04:04:25;16.10;99.90
42907;DHT22;28552;51.146;6.576;2023-10-09T04:07:28;16.10;99.90
42907;DHT22;28552;51.146;6.576;2023-10-09T04:10:29;16.00;99.90
42907;DHT22;28552;51.146;6.576;2023-10-09T04:13:45;16.00;99.90
42907;DHT22;28552;51.146;6.576;2023-10-09T04:16:46;16.00;99.90
42907;DHT22;28552;51.146;6.576;2023-10-09T04:19:51;16.00;99.90
42907;DHT22;28552;51.146;6.576;2023-10-09T04:23:07;16.00;99.90
42907;DHT22;28552;51.146;6.576;2023-10-09T04:26:07;16.00;99.90
42907;DHT22;28552;51.146;6.576;2023-10-09T04:29:15;16.00;99.90
42907;DHT22;28552;51.146;6.576;2023-10-09T04:32:26;16.00;99.90
42907;DHT22;28552;51.146;6.576;2023-10-09T04:35:30;16.00;99.90
42907;DHT22;28552;51.146;6.576;2023-10-09T04:38:30;16.00;99.90
42907;DHT22;28552;51.146;6.576;2023-10-09T04:41:34;16.00;99.90
42907;DHT22;28552;51.146;6.576;2023-10-09T04:44:52;16.10;99.90
42907;DHT22;28552;51.146;6.576;2023-10-09T04:48:12;16.10;99.90
42907;DHT22;28552;51.146;6.576;2023-10-09T04:51:32;16.00;99.90
42907;DHT22;28552;51.146;6.576;2023-10-09T04:54:36;16.00;99.90
42907;DHT22;28552;51.146;6.576;2023-10-09T04:57:50;16.00;99.90
42907;DHT22;28552;51.146;6.576;2023-10-09T05:01:06;16.00;99.90
42907;DHT22;28552;51.146;6.576;2023-10-09T05:04:13;16.00;99.90
42907;DHT22;28552;51.146;6.576;2023-10-09T05:07:28;16.00;99.90
42907;DHT22;28552;51.146;6.576;2023-10-09T05:10:43;16.00;99.90
42907;DHT22;28552;51.146;6.576;2023-10-09T05:14:03;16.00;99.90
42907;DHT22;28552;51.146;6.576;2023-10-09T05:17:19;16.00;99.90
42907;DHT22;28552;51.146;6.576;2023-10-09T05:20:24;16.00;99.90
42907;DHT22;28552;51.146;6.576;2023-10-09T05:23:25;16.00;99.90
42907;DHT22;28552;51.146;6.576;2023-10-09T05:26:26;16.00;99.90
42907;DHT22;28552;51.146;6.576;2023-10-09T05:29:37;16.00;99.90
42907;DHT22;28552;51.146;6.576;2023-10-09T05:32:50;16.00;99.90
42907;DHT22;28552;51.146;6.576;2023-10-09T05:35:55;16.00;99.90
42907;DHT22;28552;51.146;6.576;2023-10-09T05:39:10;16.00;99.90
42907;DHT22;28552;51.146;6.576;2023-10-09T05:42:33;16.00;99.90
42907;DHT22;28552;51.146;6.576;2023-10-09T05:45:48;16.00;99.90
42907;DHT22;28552;51.146;6.576;2023-10-09T05:49:08;16.00;99.90
42907;DHT22;28552;51.146;6.576;2023-10-09T05:52:20;16.00;99.90
42907;DHT22;28552;51.146;6.576;2023-10-09T05:55:33;16.00;99.90
42907;DHT22;28552;51.146;6.576;2023-10-09T05:58:48;16.00;99.90
42907;DHT22;28552;51.146;6.576;2023-10-09T06:02:04;16.00;99.90
42907;DHT22;28552;51.146;6.576;2023-10-09T06:05:14;16.00;99.90
42907;DHT22;28552;51.146;6.576;2023-10-09T06:08:35;16.00;99.90
42907;DHT22;28552;51.146;6.576;2023-10-09T06:11:55;16.00;99.90
42907;DHT22;28552;51.146;6.576;2023-10-09T06:15:18;16.00;99.90
42907;DHT22;28552;51.146;6.576;2023-10-09T06:18:31;16.10;99.90
42907;DHT22;28552;51.146;6.576;2023-10-09T06:21:35;16.10;99.90
42907;DHT22;28552;51.146;6.576;2023-10-09T06:24:55;16.00;99.90
42907;DHT22;28552;51.146;6.576;2023-10-09T06:27:57;16.00;99.90
42907;DHT22;28552;51.146;6.576;2023-10-09T06:30:58;16.00;99.90
42907;DHT22;28552;51.146;6.576;2023-10-09T06:34:19;16.10;99.90
42907;DHT22;28552;51.146;6.576;2023-10-09T06:37:22;16.10;99.90
42907;DHT22;28552;51.146;6.576;2023-10-09T06:40:23;16.00;99.90
42907;DHT22;28552;51.146;6.576;2023-10-09T06:43:39;16.10;99.90
42907;DHT22;28552;51.146;6.576;2023-10-09T06:46:43;16.10;99.90
42907;DHT22;28552;51.146;6.576;2023-10-09T06:49:44;16.10;99.90
42907;DHT22;28552;51.146;6.576;2023-10-09T06:53:05;16.10;99.90
42907;DHT22;28552;51.146;6.576;2023-10-09T06:56:06;16.00;99.90
42907;DHT22;28552;51.146;6.576;2023-10-09T06:59:07;16.10;99.90
42907;DHT22;28552;51.146;6.576;2023-10-09T07:02:17;16.10;99.90
42907;DHT22;28552;51.146;6.576;2023-10-09T07:05:32;16.10;99.90
42907;DHT22;28552;51.146;6.576;2023-10-09T07:08:50;16.20;99.90
42907;DHT22;28552;51.146;6.576;2023-10-09T07:12:11;16.20;99.90
42907;DHT22;28552;51.146;6.576;2023-10-09T07:15:21;16.30;99.90
42907;DHT22;28552;51.146;6.576;2023-10-09T07:18:41;16.30;99.90
42907;DHT22;28552;51.146;6.576;2023-10-09T07:21:49;16.40;99.90
42907;DHT22;28552;51.146;6.576;2023-10-09T07:24:56;16.40;99.90
42907;DHT22;28552;51.146;6.576;2023-10-09T07:27:56;16.50;99.90
42907;DHT22;28552;51.146;6.576;2023-10-09T07:31:00;16.40;99.90
42907;DHT22;28552;51.146;6.576;2023-10-09T07:34:00;16.40;99.90
42907;DHT22;28552;51.146;6.576;2023-10-09T07:37:07;16.40;99.90
42907;DHT22;28552;51.146;6.576;2023-10-09T07:40:08;16.50;99.90
42907;DHT22;28552;51.146;6.576;2023-10-09T07:43:09;16.50;99.90
42907;DHT22;28552;51.146;6.576;2023-10-09T07:46:18;16.50;99.90
42907;DHT22;28552;51.146;6.576;2023-10-09T07:49:34;16.50;99.90
42907;DHT22;28552;51.146;6.576;2023-10-09T07:52:37;16.50;99.90
42907;DHT22;28552;51.146;6.576;2023-10-09T07:55:46;16.50;99.90
42907;DHT22;28552;51.146;6.576;2023-10-09T07:58:56;16.60;99.90
42907;DHT22;28552;51.146;6.576;2023-10-09T08:02:00;16.60;99.90
42907;DHT22;28552;51.146;6.576;2023-10-09T08:05:05;16.60;99.90
42907;DHT22;28552;51.146;6.576;2023-10-09T08:08:07;16.60;99.90
42907;DHT22;28552;51.146;6.576;2023-10-09T08:11:23;16.70;99.90
42907;DHT22;28552;51.146;6.576;2023-10-09T08:14:38;16.70;99.90
42907;DHT22;28552;51.146;6.576;2023-10-09T08:17:48;16.80;99.90
42907;DHT22;28552;51.146;6.576;2023-10-09T08:20:54;16.80;99.90
42907;DHT22;28552;51.146;6.576;2023-10-09T08:24:15;16.90;99.90
42907;DHT22;28552;51.146;6.576;2023-10-09T08:27:35;16.90;99.90
42907;DHT22;28552;51.146;6.576;2023-10-09T08:30:36;16.90;99.90
42907;DHT22;28552;51.146;6.576;2023-10-09T08:33:51;17.00;99.90
42907;DHT22;28552;51.146;6.576;2023-10-09T08:36:59;16.90;99.90
42907;DHT22;28552;51.146;6.576;2023-10-09T08:40:00;17.00;99.90
42907;DHT22;28552;51.146;6.576;2023-10-09T08:46:25;17.10;99.90
42907;DHT22;28552;51.146;6.576;2023-10-09T08:49:30;17.20;99.90
42907;DHT22;28552;51.146;6.576;2023-10-09T08:52:33;17.20;99.90
42907;DHT22;28552;51.146;6.576;2023-10-09T08:55:37;17.20;99.90
42907;DHT22;28552;51.146;6.576;2023-10-09T08:58:38;17.20;99.90
42907;DHT22;28552;51.146;6.576;2023-10-09T09:01:40;17.20;99.90
42907;DHT22;28552;51.146;6.576;2023-10-09T09:04:41;17.20;99.90
42907;DHT22;28552;51.146;6.576;2023-10-09T09:07:42;17.30;99.90
42907;DHT22;28552;51.146;6.576;2023-10-09T09:10:43;17.30;99.90
42907;DHT22;28552;51.146;6.576;2023-10-09T09:17:06;17.40;99.90
42907;DHT22;28552;51.146;6.576;2023-10-09T09:20:20;17.50;99.90
42907;DHT22;28552;51.146;6.576;2023-10-09T09:23:23;17.50;99.90
42907;DHT22;28552;51.146;6.576;2023-10-09T09:26:39;17.60;99.90
42907;DHT22;28552;51.146;6.576;2023-10-09T09:29:47;17.70;99.90
42907;DHT22;28552;51.146;6.576;2023-10-09T09:32:54;17.80;99.90
42907;DHT22;28552;51.146;6.576;2023-10-09T09:36:10;17.80;99.90
42907;DHT22;28552;51.146;6.576;2023-10-09T09:39:11;17.90;99.90
42907;DHT22;28552;51.146;6.576;2023-10-09T09:42:20;18.00;99.90
42907;DHT22;28552;51.146;6.576;2023-10-09T09:45:25;18.10;99.90
42907;DHT22;28552;51.146;6.576;2023-10-09T09:48:26;18.20;99.90
42907;DHT22;28552;51.146;6.576;2023-10-09T09:51:30;18.20;99.90
42907;DHT22;28552;51.146;6.576;2023-10-09T09:54:31;18.30;99.90
42907;DHT22;28552;51.146;6.576;2023-10-09T09:57:36;18.40;99.90
42907;DHT22;28552;51.146;6.576;2023-10-09T10:00:40;18.50;99.90
42907;DHT22;28552;51.146;6.576;2023-10-09T10:03:44;18.60;99.90
42907;DHT22;28552;51.146;6.576;2023-10-09T10:06:47;18.70;99.90
42907;DHT22;28552;51.146;6.576;2023-10-09T10:09:50;18.80;99.90
42907;DHT22;28552;51.146;6.576;2023-10-09T10:12:54;18.80;99.90
42907;DHT22;28552;51.146;6.576;2023-10-09T10:16:06;18.80;99.90
42907;DHT22;28552;51.146;6.576;2023-10-09T10:19:23;18.80;99.90
42907;DHT22;28552;51.146;6.576;2023-10-09T10:22:25;18.80;99.90
42907;DHT22;28552;51.146;6.576;2023-10-09T10:28:36;18.90;99.90
42907;DHT22;28552;51.146;6.576;2023-10-09T10:31:58;19.00;99.90
42907;DHT22;28552;51.146;6.576;2023-10-09T10:35:00;19.00;99.90
42907;DHT22;28552;51.146;6.576;2023-10-09T10:38:22;19.00;99.90
42907;DHT22;28552;51.146;6.576;2023-10-09T10:41:23;18.90;99.90
42907;DHT22;28552;51.146;6.576;2023-10-09T10:44:28;18.90;99.90
42907;DHT22;28552;51.146;6.576;2023-10-09T10:47:44;18.90;99.90
42907;DHT22;28552;51.146;6.576;2023-10-09T10:50:49;18.80;99.90
42907;DHT22;28552;51.146;6.576;2023-10-09T10:53:51;18.90;99.90
42907;DHT22;28552;51.146;6.576;2023-10-09T10:56:55;18.90;99.90
42907;DHT22;28552;51.146;6.576;2023-10-09T10:59:58;19.00;99.90
42907;DHT22;28552;51.146;6.576;2023-10-09T11:03:20;19.00;99.90
42907;DHT22;28552;51.146;6.576;2023-10-09T11:06:36;19.00;99.90
42907;DHT22;28552;51.146;6.576;2023-10-09T11:09:53;19.10;99.90
42907;DHT22;28552;51.146;6.576;2023-10-09T11:13:09;19.10;99.90
42907;DHT22;28552;51.146;6.576;2023-10-09T11:16:09;19.20;99.90
42907;DHT22;28552;51.146;6.576;2023-10-09T11:19:29;19.20;99.90
42907;DHT22;28552;51.146;6.576;2023-10-09T11:22:33;19.30;99.90
42907;DHT22;28552;51.146;6.576;2023-10-09T11:25:42;19.30;99.90
42907;DHT22;28552;51.146;6.576;2023-10-09T11:32:18;19.40;99.90
42907;DHT22;28552;51.146;6.576;2023-10-09T11:35:18;19.40;99.90
42907;DHT22;28552;51.146;6.576;2023-10-09T11:38:21;19.40;99.90
42907;DHT22;28552;51.146;6.576;2023-10-09T11:41:21;19.40;99.90
42907;DHT22;28552;51.146;6.576;2023-10-09T11:44:40;19.40;99.90
42907;DHT22;28552;51.146;6.576;2023-10-09T11:47:41;19.40;99.90
42907;DHT22;28552;51.146;6.576;2023-10-09T11:50:54;19.40;99.90
42907;DHT22;28552;51.146;6.576;2023-10-09T11:54:29;19.40;99.90
42907;DHT22;28552;51.146;6.576;2023-10-09T11:57:31;19.40;99.90
42907;DHT22;28552;51.146;6.576;2023-10-09T12:00:33;19.40;99.90
42907;DHT22;28552;51.146;6.576;2023-10-09T12:03:44;19.50;99.90
42907;DHT22;28552;51.146;6.576;2023-10-09T12:06:49;19.50;99.90
42907;DHT22;28552;51.146;6.576;2023-10-09T12:09:57;19.50;99.90
42907;DHT22;28552;51.146;6.576;2023-10-09T12:12:58;19.60;99.90
42907;DHT22;28552;51.146;6.576;2023-10-09T12:15:58;19.60;99.90
42907;DHT22;28552;51.146;6.576;2023-10-09T12:18:59;19.70;99.90
42907;DHT22;28552;51.146;6.576;2023-10-09T12:22:01;19.80;99.90
42907;DHT22;28552;51.146;6.576;2023-10-09T12:25:04;19.80;99.90
42907;DHT22;28552;51.146;6.576;2023-10-09T12:28:09;19.80;99.90
42907;DHT22;28552;51.146;6.576;2023-10-09T12:31:13;19.80;99.90
42907;DHT22;28552;51.146;6.576;2023-10-09T12:34:21;19.90;99.90
42907;DHT22;28552;51.146;6.576;2023-10-09T12:37:26;19.80;99.90
42907;DHT22;28552;51.146;6.576;2023-10-09T12:40:27;19.90;99.90
42907;DHT22;28552;51.146;6.576;2023-10-09T12:43:31;19.80;99.90
42907;DHT22;28552;51.146;6.576;2023-10-09T12:46:31;19.90;99.90
42907;DHT22;28552;51.146;6.576;2023-10-09T12:49:33;19.80;99.90
42907;DHT22;28552;51.146;6.576;2023-10-09T12:52:33;19.80;99.90
42907;DHT22;28552;51.146;6.576;2023-10-09T12:55:38;19.90;99.90
42907;DHT22;28552;51.146;6.576;2023-10-09T12:58:42;19.90;99.90
42907;DHT22;28552;51.146;6.576;2023-10-09T13:01:52;19.90;99.90
42907;DHT22;28552;51.146;6.576;2023-10-09T13:04:58;19.80;99.90
42907;DHT22;28552;51.146;6.576;2023-10-09T13:08:00;19.80;99.90
42907;DHT22;28552;51.146;6.576;2023-10-09T13:11:04;19.80;99.90
42907;DHT22;28552;51.146;6.576;2023-10-09T13:14:10;19.90;99.90
42907;DHT22;28552;51.146;6.576;2023-10-09T13:17:17;19.90;99.90
42907;DHT22;28552;51.146;6.576;2023-10-09T13:20:20;19.90;99.90
42907;DHT22;28552;51.146;6.576;2023-10-09T13:23:22;19.90;99.90
42907;DHT22;28552;51.146;6.576;2023-10-09T13:26:34;19.80;99.90
42907;DHT22;28552;51.146;6.576;2023-10-09T13:29:37;19.80;99.90
42907;DHT22;28552;51.146;6.576;2023-10-09T13:32:40;19.80;99.90
42907;DHT22;28552;51.146;6.576;2023-10-09T13:35:40;19.80;99.90
42907;DHT22;28552;51.146;6.576;2023-10-09T13:38:48;19.70;99.90
42907;DHT22;28552;51.146;6.576;2023-10-09T13:41:57;19.70;99.90
42907;DHT22;28552;51.146;6.576;2023-10-09T13:44:58;19.70;99.90
42907;DHT22;28552;51.146;6.576;2023-10-09T13:48:05;19.80;99.90
42907;DHT22;28552;51.146;6.576;2023-10-09T13:51:05;19.80;99.90
42907;DHT22;28552;51.146;6.576;2023-10-09T13:54:10;19.90;99.90
42907;DHT22;28552;51.146;6.576;2023-10-09T13:57:11;20.00;99.90
42907;DHT22;28552;51.146;6.576;2023-10-09T14:00:14;20.10;99.90
42907;DHT22;28552;51.146;6.576;2023-10-09T14:03:19;20.20;99.90
42907;DHT22;28552;51.146;6.576;2023-10-09T14:06:24;20.20;99.90
42907;DHT22;28552;51.146;6.576;2023-10-09T14:09:32;20.20;99.90
42907;DHT22;28552;51.146;6.576;2023-10-09T14:12:38;20.10;99.90
42907;DHT22;28552;51.146;6.576;2023-10-09T14:15:40;20.10;99.90
42907;DHT22;28552;51.146;6.576;2023-10-09T14:18:43;20.10;99.90
42907;DHT22;28552;51.146;6.576;2023-10-09T14:21:43;20.10;99.90
42907;DHT22;28552;51.146;6.576;2023-10-09T14:24:44;20.10;99.90
42907;DHT22;28552;51.146;6.576;2023-10-09T14:27:45;20.20;99.90
42907;DHT22;28552;51.146;6.576;2023-10-09T14:30:48;20.30;99.90
42907;DHT22;28552;51.146;6.576;2023-10-09T14:33:57;20.30;99.90
42907;DHT22;28552;51.146;6.576;2023-10-09T14:36:59;20.40;99.90
42907;DHT22;28552;51.146;6.576;2023-10-09T14:40:00;20.40;99.90
42907;DHT22;28552;51.146;6.576;2023-10-09T14:43:01;20.40;99.90
42907;DHT22;28552;51.146;6.576;2023-10-09T14:46:03;20.40;99.90
42907;DHT22;28552;51.146;6.576;2023-10-09T14:49:11;20.40;99.90
42907;DHT22;28552;51.146;6.576;2023-10-09T14:52:15;20.30;99.90
42907;DHT22;28552;51.146;6.576;2023-10-09T14:55:17;20.20;99.90
42907;DHT22;28552;51.146;6.576;2023-10-09T14:58:32;20.10;99.90
42907;DHT22;28552;51.146;6.576;2023-10-09T15:01:35;20.00;99.90
42907;DHT22;28552;51.146;6.576;2023-10-09T15:04:35;19.90;99.90
42907;DHT22;28552;51.146;6.576;2023-10-09T15:07:37;19.90;99.90
42907;DHT22;28552;51.146;6.576;2023-10-09T15:10:47;19.80;99.90
42907;DHT22;28552;51.146;6.576;2023-10-09T15:13:48;19.80;99.90
42907;DHT22;28552;51.146;6.576;2023-10-09T15:16:48;19.80;99.90
42907;DHT22;28552;51.146;6.576;2023-10-09T15:19:50;19.80;99.90
42907;DHT22;28552;51.146;6.576;2023-10-09T15:22:57;19.80;99.90
42907;DHT22;28552;51.146;6.576;2023-10-09T15:25:57;19.80;99.90
42907;DHT22;28552;51.146;6.576;2023-10-09T15:29:00;19.90;99.90
42907;DHT22;28552;51.146;6.576;2023-10-09T15:32:03;19.90;99.90
42907;DHT22;28552;51.146;6.576;2023-10-09T15:35:05;19.90;99.90
42907;DHT22;28552;51.146;6.576;2023-10-09T15:38:06;20.00;99.90
42907;DHT22;28552;51.146;6.576;2023-10-09T15:41:07;20.00;99.90
42907;DHT22;28552;51.146;6.576;2023-10-09T15:44:07;20.00;99.90
42907;DHT22;28552;51.146;6.576;2023-10-09T15:47:08;20.00;99.90
42907;DHT22;28552;51.146;6.576;2023-10-09T15:50:09;19.90;99.90
42907;DHT22;28552;51.146;6.576;2023-10-09T15:53:11;19.90;99.90
42907;DHT22;28552;51.146;6.576;2023-10-09T15:56:13;19.80;99.90
42907;DHT22;28552;51.146;6.576;2023-10-09T15:59:14;19.70;99.90
42907;DHT22;28552;51.146;6.576;2023-10-09T16:02:17;19.60;99.90
42907;DHT22;28552;51.146;6.576;2023-10-09T16:05:17;19.50;99.90
42907;DHT22;28552;51.146;6.576;2023-10-09T16:08:18;19.40;99.90
42907;DHT22;28552;51.146;6.576;2023-10-09T16:11:23;19.40;99.90
42907;DHT22;28552;51.146;6.576;2023-10-09T16:14:24;19.30;99.90
42907;DHT22;28552;51.146;6.576;2023-10-09T16:17:24;19.20;99.90
42907;DHT22;28552;51.146;6.576;2023-10-09T16:20:25;19.20;99.90
42907;DHT22;28552;51.146;6.576;2023-10-09T16:23:26;19.20;99.90
42907;DHT22;28552;51.146;6.576;2023-10-09T16:26:28;19.10;99.90
42907;DHT22;28552;51.146;6.576;2023-10-09T16:29:29;19.10;99.90
42907;DHT22;28552;51.146;6.576;2023-10-09T16:32:29;19.00;99.90
42907;DHT22;28552;51.146;6.576;2023-10-09T16:35:32;19.00;99.90
42907;DHT22;28552;51.146;6.576;2023-10-09T16:38:35;19.00;99.90
42907;DHT22;28552;51.146;6.576;2023-10-09T16:41:39;18.90;99.90
42907;DHT22;28552;51.146;6.576;2023-10-09T16:44:41;18.80;99.90
42907;DHT22;28552;51.146;6.576;2023-10-09T16:47:46;18.80;99.90
42907;DHT22;28552;51.146;6.576;2023-10-09T16:50:47;18.70;99.90
42907;DHT22;28552;51.146;6.576;2023-10-09T16:53:48;18.70;99.90
42907;DHT22;28552;51.146;6.576;2023-10-09T16:56:53;18.70;99.90
42907;DHT22;28552;51.146;6.576;2023-10-09T16:59:55;18.70;99.90
42907;DHT22;28552;51.146;6.576;2023-10-09T17:02:58;18.60;99.90
42907;DHT22;28552;51.146;6.576;2023-10-09T17:05:58;18.50;99.90
42907;DHT22;28552;51.146;6.576;2023-10-09T17:09:05;18.50;99.90
42907;DHT22;28552;51.146;6.576;2023-10-09T17:12:08;18.50;99.90
42907;DHT22;28552;51.146;6.576;2023-10-09T17:15:09;18.40;99.90
42907;DHT22;28552;51.146;6.576;2023-10-09T17:18:15;18.40;99.90
42907;DHT22;28552;51.146;6.576;2023-10-09T17:21:16;18.40;99.90
42907;DHT22;28552;51.146;6.576;2023-10-09T17:24:16;18.30;99.90
42907;DHT22;28552;51.146;6.576;2023-10-09T17:27:20;18.30;99.90
42907;DHT22;28552;51.146;6.576;2023-10-09T17:30:21;18.30;99.90
42907;DHT22;28552;51.146;6.576;2023-10-09T17:33:22;18.20;99.90
42907;DHT22;28552;51.146;6.576;2023-10-09T17:36:23;18.20;99.90
42907;DHT22;28552;51.146;6.576;2023-10-09T17:39:26;18.20;99.90
42907;DHT22;28552;51.146;6.576;2023-10-09T17:42:27;18.20;99.90
42907;DHT22;28552;51.146;6.576;2023-10-09T17:45:27;18.20;99.90
42907;DHT22;28552;51.146;6.576;2023-10-09T17:48:28;18.10;99.90
42907;DHT22;28552;51.146;6.576;2023-10-09T17:51:29;18.10;99.90
42907;DHT22;28552;51.146;6.576;2023-10-09T17:54:29;18.10;99.90
42907;DHT22;28552;51.146;6.576;2023-10-09T17:57:30;18.00;99.90
42907;DHT22;28552;51.146;6.576;2023-10-09T18:00:31;18.00;99.90
42907;DHT22;28552;51.146;6.576;2023-10-09T18:03:35;18.00;99.90
42907;DHT22;28552;51.146;6.576;2023-10-09T18:06:38;17.90;99.90
42907;DHT22;28552;51.146;6.576;2023-10-09T18:09:40;17.90;99.90
42907;DHT22;28552;51.146;6.576;2023-10-09T18:12:40;17.90;99.90
42907;DHT22;28552;51.146;6.576;2023-10-09T18:15:41;17.80;99.90
42907;DHT22;28552;51.146;6.576;2023-10-09T18:18:44;17.80;99.90
42907;DHT22;28552;51.146;6.576;2023-10-09T18:21:47;17.80;99.90
42907;DHT22;28552;51.146;6.576;2023-10-09T18:24:47;17.70;99.90
42907;DHT22;28552;51.146;6.576;2023-10-09T18:27:48;17.70;99.90
42907;DHT22;28552;51.146;6.576;2023-10-09T18:30:51;17.60;99.90
42907;DHT22;28552;51.146;6.576;2023-10-09T18:33:52;17.60;99.90
42907;DHT22;28552;51.146;6.576;2023-10-09T18:36:53;17.50;99.90
42907;DHT22;28552;51.146;6.576;2023-10-09T18:39:53;17.50;99.90
42907;DHT22;28552;51.146;6.576;2023-10-09T18:42:54;17.40;99.90
42907;DHT22;28552;51.146;6.576;2023-10-09T18:45:54;17.40;99.90
42907;DHT22;28552;51.146;6.576;2023-10-09T18:48:55;17.30;99.90
42907;DHT22;28552;51.146;6.576;2023-10-09T18:52:01;17.30;99.90
42907;DHT22;28552;51.146;6.576;2023-10-09T18:55:02;17.20;99.90
42907;DHT22;28552;51.146;6.576;2023-10-09T18:58:07;17.20;99.90
42907;DHT22;28552;51.146;6.576;2023-10-09T19:01:10;17.10;99.90
42907;DHT22;28552;51.146;6.576;2023-10-09T19:04:13;17.10;99.90
42907;DHT22;28552;51.146;6.576;2023-10-09T19:07:14;17.10;99.90
42907;DHT22;28552;51.146;6.576;2023-10-09T19:10:14;17.10;99.90
42907;DHT22;28552;51.146;6.576;2023-10-09T19:13:16;17.00;99.90
42907;DHT22;28552;51.146;6.576;2023-10-09T19:16:17;17.00;99.90
42907;DHT22;28552;51.146;6.576;2023-10-09T19:19:17;17.00;99.90
42907;DHT22;28552;51.146;6.576;2023-10-09T19:22:18;17.00;99.90
42907;DHT22;28552;51.146;6.576;2023-10-09T19:25:20;16.90;99.90
42907;DHT22;28552;51.146;6.576;2023-10-09T19:28:27;16.90;99.90
42907;DHT22;28552;51.146;6.576;2023-10-09T19:31:29;16.90;99.90
42907;DHT22;28552;51.146;6.576;2023-10-09T19:34:32;16.90;99.90
42907;DHT22;28552;51.146;6.576;2023-10-09T19:37:35;16.80;99.90
42907;DHT22;28552;51.146;6.576;2023-10-09T19:40:35;16.80;99.90
42907;DHT22;28552;51.146;6.576;2023-10-09T19:43:36;16.80;99.90